Current Weather

New Braunfels Ntl

New Braunfels, Texas (KBAZ)

Report from: Friday, February 3, 2023 9:51 PM CST
Current time: Friday, February 3, 2023 10:52 PM CST

Nearby weather
Weather history
Weather forecast

Temperature8.3°C (46.9°F)
Wind chill6.8°C (44.2°F)
Dew point5.6°C (42.1°F)
Winds 5 kts (2.6 m/s, 5.8 mph) East (90°)
Visibility10 mi. (16.1 km)
Clouds Ceiling: Overcast 1,300 ft. (396 m)
Altimeter30.49 in.Hg (1033 mB)
Relative humidity83 %
Density altitude-1,322 ft. (-403 m)
Sea-level pressure103.2 kPa (1032 mB, 30.49 in.Hg)
Remarks Fully automated report
Automated weather observing station with precipitation discriminator
Flight conditions Marginal Visual Meteorological Conditions
Raw dataKBAZ 040351Z AUTO 09005KT 10SM OVC013 08/06 A3049 RMK AO2 SLP324 T00830056
An unhandled exception has occurred. See browser dev tools for details. Reload 🗙